Offutt Lake, Washington
Current Conditions -  °F | °C
As of 9:54 PM on Thursday 30 Oct 2014 (Local Time) from KOLM Reporting Station
Light Rain Light Rain  
Wind Chill: 12°   Ceiling: 3700
Heat Index: 12°   Visibility: 10mi
Dew Point: 11°   Wind: 5mph
Humidity: 93%   Direction: 210°SSW
Pressure: 29.78"   Gusts: NA
Location:  46.9755°N, 122.872°W
Report Text: KOLM 310454Z AUTO 21004KT 10SM -RA OVC037 12/11 A2978 RMK AO2 RAE11B50 SLP083 P0000 T01170106
Loading
Personal Weather Stations






























Interactive Weather Map
Tropical Storm Tracking
New forecast layout! Learn more

10-Day Weather Forecast

Advertisements
Track Severe Weather on mobile